sensor_id;sensor_type;location;lat;lon;timestamp;P1;durP1;ratioP1;P2;durP2;ratioP2
75682;SDS011;64295;44.772;39.872;2023-02-28T00:01:16;25.38;;;12.32;;
75682;SDS011;64295;44.772;39.872;2023-02-28T00:03:42;26.70;;;12.43;;
75682;SDS011;64295;44.772;39.872;2023-02-28T00:06:11;28.70;;;12.75;;
75682;SDS011;64295;44.772;39.872;2023-02-28T00:08:37;29.02;;;13.20;;
75682;SDS011;64295;44.772;39.872;2023-02-28T00:11:09;24.92;;;12.55;;
75682;SDS011;64295;44.772;39.872;2023-02-28T00:13:36;24.67;;;13.23;;
75682;SDS011;64295;44.772;39.872;2023-02-28T00:16:05;27.08;;;12.68;;
75682;SDS011;64295;44.772;39.872;2023-02-28T00:18:34;27.65;;;12.20;;
75682;SDS011;64295;44.772;39.872;2023-02-28T00:21:00;24.88;;;13.18;;
75682;SDS011;64295;44.772;39.872;2023-02-28T00:23:26;24.73;;;12.40;;
75682;SDS011;64295;44.772;39.872;2023-02-28T00:25:55;26.00;;;11.98;;
75682;SDS011;64295;44.772;39.872;2023-02-28T00:28:21;24.60;;;12.48;;
75682;SDS011;64295;44.772;39.872;2023-02-28T00:30:47;27.17;;;12.38;;
75682;SDS011;64295;44.772;39.872;2023-02-28T00:33:13;23.80;;;11.65;;
75682;SDS011;64295;44.772;39.872;2023-02-28T00:35:40;27.13;;;12.18;;
75682;SDS011;64295;44.772;39.872;2023-02-28T00:38:08;25.98;;;12.80;;
75682;SDS011;64295;44.772;39.872;2023-02-28T00:40:34;26.25;;;12.73;;
75682;SDS011;64295;44.772;39.872;2023-02-28T00:43:00;24.90;;;12.15;;
75682;SDS011;64295;44.772;39.872;2023-02-28T00:45:26;21.70;;;11.50;;
75682;SDS011;64295;44.772;39.872;2023-02-28T00:47:52;24.80;;;12.50;;
75682;SDS011;64295;44.772;39.872;2023-02-28T00:50:20;27.85;;;13.48;;
75682;SDS011;64295;44.772;39.872;2023-02-28T00:52:47;25.38;;;12.95;;
75682;SDS011;64295;44.772;39.872;2023-02-28T00:55:13;24.65;;;12.15;;
75682;SDS011;64295;44.772;39.872;2023-02-28T00:57:40;26.13;;;11.77;;
75682;SDS011;64295;44.772;39.872;2023-02-28T01:00:06;30.33;;;11.20;;
75682;SDS011;64295;44.772;39.872;2023-02-28T01:02:33;27.77;;;11.75;;
75682;SDS011;64295;44.772;39.872;2023-02-28T01:04:59;22.42;;;11.23;;
75682;SDS011;64295;44.772;39.872;2023-02-28T01:07:28;25.85;;;11.48;;
75682;SDS011;64295;44.772;39.872;2023-02-28T01:09:54;21.15;;;10.70;;
75682;SDS011;64295;44.772;39.872;2023-02-28T01:12:20;24.05;;;11.98;;
75682;SDS011;64295;44.772;39.872;2023-02-28T01:14:46;27.17;;;11.13;;
75682;SDS011;64295;44.772;39.872;2023-02-28T01:17:12;26.75;;;11.30;;
75682;SDS011;64295;44.772;39.872;2023-02-28T01:19:38;24.15;;;11.02;;
75682;SDS011;64295;44.772;39.872;2023-02-28T01:22:04;24.38;;;11.77;;
75682;SDS011;64295;44.772;39.872;2023-02-28T01:24:31;21.67;;;11.73;;
75682;SDS011;64295;44.772;39.872;2023-02-28T01:26:57;19.83;;;10.52;;
75682;SDS011;64295;44.772;39.872;2023-02-28T01:29:23;24.42;;;11.57;;
75682;SDS011;64295;44.772;39.872;2023-02-28T01:31:51;27.08;;;11.20;;
75682;SDS011;64295;44.772;39.872;2023-02-28T01:34:17;22.92;;;11.20;;
75682;SDS011;64295;44.772;39.872;2023-02-28T01:36:44;21.83;;;10.65;;
75682;SDS011;64295;44.772;39.872;2023-02-28T01:39:11;26.05;;;9.98;;
75682;SDS011;64295;44.772;39.872;2023-02-28T01:41:38;22.88;;;10.40;;
75682;SDS011;64295;44.772;39.872;2023-02-28T01:44:53;25.50;;;10.55;;
75682;SDS011;64295;44.772;39.872;2023-02-28T01:47:11;23.60;;;10.05;;
75682;SDS011;64295;44.772;39.872;2023-02-28T01:49:37;19.02;;;9.93;;
75682;SDS011;64295;44.772;39.872;2023-02-28T01:52:03;23.50;;;10.55;;
75682;SDS011;64295;44.772;39.872;2023-02-28T01:54:30;26.63;;;10.40;;
75682;SDS011;64295;44.772;39.872;2023-02-28T01:59:48;21.58;;;10.75;;
75682;SDS011;64295;44.772;39.872;2023-02-28T02:02:19;19.60;;;10.32;;
75682;SDS011;64295;44.772;39.872;2023-02-28T02:04:56;18.95;;;9.20;;
75682;SDS011;64295;44.772;39.872;2023-02-28T02:07:29;24.02;;;10.07;;
75682;SDS011;64295;44.772;39.872;2023-02-28T02:10:06;24.92;;;9.90;;
75682;SDS011;64295;44.772;39.872;2023-02-28T02:12:56;19.85;;;9.60;;
75682;SDS011;64295;44.772;39.872;2023-02-28T02:15:30;21.05;;;9.18;;
75682;SDS011;64295;44.772;39.872;2023-02-28T02:17:59;19.83;;;9.48;;
75682;SDS011;64295;44.772;39.872;2023-02-28T02:29:23;22.73;;;10.75;;
75682;SDS011;64295;44.772;39.872;2023-02-28T02:37:33;18.63;;;9.32;;
75682;SDS011;64295;44.772;39.872;2023-02-28T02:40:21;19.40;;;9.80;;
75682;SDS011;64295;44.772;39.872;2023-02-28T02:43:05;19.30;;;9.40;;
75682;SDS011;64295;44.772;39.872;2023-02-28T02:45:45;15.65;;;9.18;;
75682;SDS011;64295;44.772;39.872;2023-02-28T02:48:21;18.35;;;8.80;;
75682;SDS011;64295;44.772;39.872;2023-02-28T02:50:55;19.30;;;8.60;;
75682;SDS011;64295;44.772;39.872;2023-02-28T02:53:28;16.63;;;8.75;;
75682;SDS011;64295;44.772;39.872;2023-02-28T02:56:00;17.65;;;8.18;;
75682;SDS011;64295;44.772;39.872;2023-02-28T02:58:31;22.17;;;8.88;;
75682;SDS011;64295;44.772;39.872;2023-02-28T03:01:07;16.38;;;8.55;;
75682;SDS011;64295;44.772;39.872;2023-02-28T03:03:39;19.45;;;10.13;;
75682;SDS011;64295;44.772;39.872;2023-02-28T03:06:06;19.10;;;9.55;;
75682;SDS011;64295;44.772;39.872;2023-02-28T03:08:35;18.13;;;9.35;;
75682;SDS011;64295;44.772;39.872;2023-02-28T03:11:04;16.35;;;8.90;;
75682;SDS011;64295;44.772;39.872;2023-02-28T03:21:50;21.98;;;9.93;;
75682;SDS011;64295;44.772;39.872;2023-02-28T03:27:16;19.52;;;8.18;;
75682;SDS011;64295;44.772;39.872;2023-02-28T03:29:55;25.83;;;9.80;;
75682;SDS011;64295;44.772;39.872;2023-02-28T03:32:35;23.75;;;8.65;;
75682;SDS011;64295;44.772;39.872;2023-02-28T03:35:08;26.30;;;10.15;;
75682;SDS011;64295;44.772;39.872;2023-02-28T03:37:40;23.20;;;9.43;;
75682;SDS011;64295;44.772;39.872;2023-02-28T03:40:28;27.27;;;9.18;;
75682;SDS011;64295;44.772;39.872;2023-02-28T03:42:59;29.65;;;9.07;;
75682;SDS011;64295;44.772;39.872;2023-02-28T03:45:32;17.70;;;8.25;;
75682;SDS011;64295;44.772;39.872;2023-02-28T03:48:09;18.95;;;8.18;;
75682;SDS011;64295;44.772;39.872;2023-02-28T03:50:40;25.10;;;9.05;;
75682;SDS011;64295;44.772;39.872;2023-02-28T03:53:24;21.52;;;8.27;;
75682;SDS011;64295;44.772;39.872;2023-02-28T03:55:56;18.38;;;8.27;;
75682;SDS011;64295;44.772;39.872;2023-02-28T03:58:31;24.42;;;9.00;;
75682;SDS011;64295;44.772;39.872;2023-02-28T04:01:21;21.30;;;8.63;;
75682;SDS011;64295;44.772;39.872;2023-02-28T04:03:54;20.35;;;8.27;;
75682;SDS011;64295;44.772;39.872;2023-02-28T04:06:21;22.75;;;9.05;;
75682;SDS011;64295;44.772;39.872;2023-02-28T04:08:50;16.02;;;7.80;;
75682;SDS011;64295;44.772;39.872;2023-02-28T04:14:11;21.02;;;9.55;;
75682;SDS011;64295;44.772;39.872;2023-02-28T04:16:38;16.77;;;8.55;;
75682;SDS011;64295;44.772;39.872;2023-02-28T04:19:06;22.48;;;9.32;;
75682;SDS011;64295;44.772;39.872;2023-02-28T04:21:34;22.10;;;9.77;;
75682;SDS011;64295;44.772;39.872;2023-02-28T04:24:02;17.10;;;8.13;;
75682;SDS011;64295;44.772;39.872;2023-02-28T04:26:32;18.45;;;8.18;;
75682;SDS011;64295;44.772;39.872;2023-02-28T04:29:00;18.33;;;8.35;;
75682;SDS011;64295;44.772;39.872;2023-02-28T04:31:26;17.77;;;8.43;;
75682;SDS011;64295;44.772;39.872;2023-02-28T04:33:52;26.83;;;9.43;;
75682;SDS011;64295;44.772;39.872;2023-02-28T04:36:18;17.35;;;8.27;;
75682;SDS011;64295;44.772;39.872;2023-02-28T04:38:44;18.42;;;8.27;;
75682;SDS011;64295;44.772;39.872;2023-02-28T04:41:11;21.67;;;8.52;;
75682;SDS011;64295;44.772;39.872;2023-02-28T04:43:38;16.23;;;7.72;;
75682;SDS011;64295;44.772;39.872;2023-02-28T04:46:04;19.20;;;8.35;;
75682;SDS011;64295;44.772;39.872;2023-02-28T04:48:32;19.70;;;8.23;;
75682;SDS011;64295;44.772;39.872;2023-02-28T04:51:06;22.88;;;9.45;;
75682;SDS011;64295;44.772;39.872;2023-02-28T04:53:35;24.70;;;9.23;;
75682;SDS011;64295;44.772;39.872;2023-02-28T04:56:02;26.98;;;9.93;;
75682;SDS011;64295;44.772;39.872;2023-02-28T04:58:28;27.98;;;11.13;;
75682;SDS011;64295;44.772;39.872;2023-02-28T05:01:01;19.52;;;9.70;;
75682;SDS011;64295;44.772;39.872;2023-02-28T05:03:47;24.55;;;9.63;;
75682;SDS011;64295;44.772;39.872;2023-02-28T05:06:14;19.55;;;9.25;;
75682;SDS011;64295;44.772;39.872;2023-02-28T05:08:40;28.55;;;9.40;;
75682;SDS011;64295;44.772;39.872;2023-02-28T05:11:08;21.75;;;7.93;;
75682;SDS011;64295;44.772;39.872;2023-02-28T05:13:39;18.00;;;8.05;;
75682;SDS011;64295;44.772;39.872;2023-02-28T05:16:05;19.08;;;8.13;;
75682;SDS011;64295;44.772;39.872;2023-02-28T05:18:31;22.67;;;9.02;;
75682;SDS011;64295;44.772;39.872;2023-02-28T05:20:57;18.98;;;8.50;;
75682;SDS011;64295;44.772;39.872;2023-02-28T05:23:26;22.80;;;8.48;;
75682;SDS011;64295;44.772;39.872;2023-02-28T05:25:53;24.98;;;8.93;;
75682;SDS011;64295;44.772;39.872;2023-02-28T05:28:19;25.40;;;9.75;;
75682;SDS011;64295;44.772;39.872;2023-02-28T05:30:46;19.80;;;8.57;;
75682;SDS011;64295;44.772;39.872;2023-02-28T05:33:12;21.02;;;9.65;;
75682;SDS011;64295;44.772;39.872;2023-02-28T05:35:39;23.90;;;8.93;;
75682;SDS011;64295;44.772;39.872;2023-02-28T05:38:07;19.95;;;8.48;;
75682;SDS011;64295;44.772;39.872;2023-02-28T05:40:33;16.55;;;8.65;;
75682;SDS011;64295;44.772;39.872;2023-02-28T05:42:59;15.95;;;8.77;;
75682;SDS011;64295;44.772;39.872;2023-02-28T05:45:25;17.17;;;8.38;;
75682;SDS011;64295;44.772;39.872;2023-02-28T05:47:54;24.58;;;9.13;;
75682;SDS011;64295;44.772;39.872;2023-02-28T05:50:20;21.45;;;8.98;;
75682;SDS011;64295;44.772;39.872;2023-02-28T05:52:50;21.25;;;8.63;;
75682;SDS011;64295;44.772;39.872;2023-02-28T05:55:16;18.52;;;8.40;;
75682;SDS011;64295;44.772;39.872;2023-02-28T05:57:42;22.48;;;9.15;;
75682;SDS011;64295;44.772;39.872;2023-02-28T06:00:08;16.50;;;8.15;;
75682;SDS011;64295;44.772;39.872;2023-02-28T06:02:38;22.15;;;9.73;;
75682;SDS011;64295;44.772;39.872;2023-02-28T06:05:07;20.23;;;8.60;;
75682;SDS011;64295;44.772;39.872;2023-02-28T06:07:39;19.80;;;9.35;;
75682;SDS011;64295;44.772;39.872;2023-02-28T06:10:05;19.52;;;10.20;;
75682;SDS011;64295;44.772;39.872;2023-02-28T06:12:31;23.10;;;9.93;;
75682;SDS011;64295;44.772;39.872;2023-02-28T06:15:00;32.70;;;10.82;;
75682;SDS011;64295;44.772;39.872;2023-02-28T06:17:26;20.25;;;9.13;;
75682;SDS011;64295;44.772;39.872;2023-02-28T06:19:52;24.45;;;9.63;;
75682;SDS011;64295;44.772;39.872;2023-02-28T06:22:18;23.75;;;9.07;;
75682;SDS011;64295;44.772;39.872;2023-02-28T06:24:43;21.27;;;10.43;;
75682;SDS011;64295;44.772;39.872;2023-02-28T06:27:09;23.60;;;11.90;;
75682;SDS011;64295;44.772;39.872;2023-02-28T06:29:35;25.83;;;11.82;;
75682;SDS011;64295;44.772;39.872;2023-02-28T06:32:01;20.00;;;10.18;;
75682;SDS011;64295;44.772;39.872;2023-02-28T06:34:27;20.67;;;10.07;;
75682;SDS011;64295;44.772;39.872;2023-02-28T06:36:53;23.23;;;11.07;;
75682;SDS011;64295;44.772;39.872;2023-02-28T06:39:19;25.95;;;10.43;;
75682;SDS011;64295;44.772;39.872;2023-02-28T06:41:45;20.20;;;9.82;;
75682;SDS011;64295;44.772;39.872;2023-02-28T06:44:14;20.67;;;9.30;;
75682;SDS011;64295;44.772;39.872;2023-02-28T06:46:42;20.25;;;8.35;;
75682;SDS011;64295;44.772;39.872;2023-02-28T06:49:09;22.35;;;8.15;;
75682;SDS011;64295;44.772;39.872;2023-02-28T06:51:36;16.92;;;7.13;;
75682;SDS011;64295;44.772;39.872;2023-02-28T06:54:04;13.05;;;6.50;;
75682;SDS011;64295;44.772;39.872;2023-02-28T06:56:30;10.40;;;6.25;;
75682;SDS011;64295;44.772;39.872;2023-02-28T06:58:56;12.07;;;5.95;;
75682;SDS011;64295;44.772;39.872;2023-02-28T07:01:22;13.02;;;6.65;;
75682;SDS011;64295;44.772;39.872;2023-02-28T07:03:49;15.38;;;6.50;;
75682;SDS011;64295;44.772;39.872;2023-02-28T07:06:18;14.23;;;6.68;;
75682;SDS011;64295;44.772;39.872;2023-02-28T07:08:44;13.05;;;7.05;;
75682;SDS011;64295;44.772;39.872;2023-02-28T07:11:10;14.65;;;6.90;;
75682;SDS011;64295;44.772;39.872;2023-02-28T07:13:36;14.98;;;6.55;;
75682;SDS011;64295;44.772;39.872;2023-02-28T07:16:03;18.33;;;8.10;;
75682;SDS011;64295;44.772;39.872;2023-02-28T07:18:31;16.02;;;8.43;;
75682;SDS011;64295;44.772;39.872;2023-02-28T07:20:57;17.70;;;8.60;;
75682;SDS011;64295;44.772;39.872;2023-02-28T07:23:23;16.10;;;6.97;;
75682;SDS011;64295;44.772;39.872;2023-02-28T07:25:49;11.85;;;6.75;;
75682;SDS011;64295;44.772;39.872;2023-02-28T07:28:16;14.95;;;6.90;;
75682;SDS011;64295;44.772;39.872;2023-02-28T07:30:42;16.20;;;7.03;;
75682;SDS011;64295;44.772;39.872;2023-02-28T07:33:09;12.23;;;6.35;;
75682;SDS011;64295;44.772;39.872;2023-02-28T07:35:35;14.65;;;6.45;;
75682;SDS011;64295;44.772;39.872;2023-02-28T07:38:02;14.65;;;6.15;;
75682;SDS011;64295;44.772;39.872;2023-02-28T07:40:28;11.10;;;5.55;;
75682;SDS011;64295;44.772;39.872;2023-02-28T07:42:54;9.52;;;5.90;;
75682;SDS011;64295;44.772;39.872;2023-02-28T07:45:21;10.75;;;5.13;;
75682;SDS011;64295;44.772;39.872;2023-02-28T07:47:47;10.40;;;5.07;;
75682;SDS011;64295;44.772;39.872;2023-02-28T07:50:13;11.13;;;5.55;;
75682;SDS011;64295;44.772;39.872;2023-02-28T07:52:40;11.23;;;5.63;;
75682;SDS011;64295;44.772;39.872;2023-02-28T07:55:07;11.82;;;5.72;;
75682;SDS011;64295;44.772;39.872;2023-02-28T07:57:34;10.95;;;6.35;;
75682;SDS011;64295;44.772;39.872;2023-02-28T08:00:00;13.07;;;4.97;;
75682;SDS011;64295;44.772;39.872;2023-02-28T08:02:36;12.30;;;6.03;;
75682;SDS011;64295;44.772;39.872;2023-02-28T08:05:02;10.48;;;5.20;;
75682;SDS011;64295;44.772;39.872;2023-02-28T08:07:29;22.90;;;11.27;;
75682;SDS011;64295;44.772;39.872;2023-02-28T08:09:55;19.10;;;13.02;;
75682;SDS011;64295;44.772;39.872;2023-02-28T08:12:23;12.95;;;7.78;;
75682;SDS011;64295;44.772;39.872;2023-02-28T08:14:49;11.50;;;6.30;;
75682;SDS011;64295;44.772;39.872;2023-02-28T08:17:15;13.23;;;5.82;;
75682;SDS011;64295;44.772;39.872;2023-02-28T08:19:46;14.25;;;6.20;;
75682;SDS011;64295;44.772;39.872;2023-02-28T08:22:12;7.10;;;4.40;;
75682;SDS011;64295;44.772;39.872;2023-02-28T08:24:39;10.23;;;4.70;;
75682;SDS011;64295;44.772;39.872;2023-02-28T08:27:07;9.82;;;4.45;;
75682;SDS011;64295;44.772;39.872;2023-02-28T08:29:33;13.77;;;5.93;;
75682;SDS011;64295;44.772;39.872;2023-02-28T08:32:01;12.98;;;4.68;;
75682;SDS011;64295;44.772;39.872;2023-02-28T08:34:28;9.35;;;4.85;;
75682;SDS011;64295;44.772;39.872;2023-02-28T08:36:53;7.32;;;4.43;;
75682;SDS011;64295;44.772;39.872;2023-02-28T08:39:22;9.73;;;3.55;;
75682;SDS011;64295;44.772;39.872;2023-02-28T08:41:48;9.18;;;4.65;;
75682;SDS011;64295;44.772;39.872;2023-02-28T08:44:13;10.23;;;4.60;;
75682;SDS011;64295;44.772;39.872;2023-02-28T08:46:39;7.50;;;4.45;;
75682;SDS011;64295;44.772;39.872;2023-02-28T08:49:05;7.72;;;3.83;;
75682;SDS011;64295;44.772;39.872;2023-02-28T08:51:32;9.15;;;4.45;;
75682;SDS011;64295;44.772;39.872;2023-02-28T08:53:59;10.85;;;5.00;;
75682;SDS011;64295;44.772;39.872;2023-02-28T08:56:26;9.25;;;4.25;;
75682;SDS011;64295;44.772;39.872;2023-02-28T08:58:54;15.50;;;5.40;;
75682;SDS011;64295;44.772;39.872;2023-02-28T09:01:22;6.97;;;3.92;;
75682;SDS011;64295;44.772;39.872;2023-02-28T09:03:52;7.13;;;3.75;;
75682;SDS011;64295;44.772;39.872;2023-02-28T09:06:20;9.27;;;4.57;;
75682;SDS011;64295;44.772;39.872;2023-02-28T09:08:48;10.48;;;5.07;;
75682;SDS011;64295;44.772;39.872;2023-02-28T09:11:14;12.77;;;5.32;;
75682;SDS011;64295;44.772;39.872;2023-02-28T09:13:41;8.90;;;4.80;;
75682;SDS011;64295;44.772;39.872;2023-02-28T09:16:09;9.60;;;5.18;;
75682;SDS011;64295;44.772;39.872;2023-02-28T09:18:37;11.73;;;4.80;;
75682;SDS011;64295;44.772;39.872;2023-02-28T09:21:07;8.73;;;4.97;;
75682;SDS011;64295;44.772;39.872;2023-02-28T09:23:35;10.98;;;6.50;;
75682;SDS011;64295;44.772;39.872;2023-02-28T09:26:03;8.43;;;4.43;;
75682;SDS011;64295;44.772;39.872;2023-02-28T09:28:29;8.10;;;4.40;;
75682;SDS011;64295;44.772;39.872;2023-02-28T09:30:55;12.23;;;4.30;;
75682;SDS011;64295;44.772;39.872;2023-02-28T09:33:24;9.10;;;4.60;;
75682;SDS011;64295;44.772;39.872;2023-02-28T09:35:52;10.88;;;4.95;;
75682;SDS011;64295;44.772;39.872;2023-02-28T09:38:23;14.38;;;6.53;;
75682;SDS011;64295;44.772;39.872;2023-02-28T09:40:50;14.00;;;5.07;;
75682;SDS011;64295;44.772;39.872;2023-02-28T09:43:22;11.60;;;5.50;;
75682;SDS011;64295;44.772;39.872;2023-02-28T09:46:36;10.13;;;5.18;;
75682;SDS011;64295;44.772;39.872;2023-02-28T09:49:19;15.95;;;5.97;;
75682;SDS011;64295;44.772;39.872;2023-02-28T09:51:57;13.30;;;5.13;;
75682;SDS011;64295;44.772;39.872;2023-02-28T09:54:30;11.70;;;5.53;;
75682;SDS011;64295;44.772;39.872;2023-02-28T09:57:08;9.90;;;5.45;;
75682;SDS011;64295;44.772;39.872;2023-02-28T10:04:59;10.90;;;5.40;;
75682;SDS011;64295;44.772;39.872;2023-02-28T10:07:46;13.00;;;6.07;;
75682;SDS011;64295;44.772;39.872;2023-02-28T10:12:58;11.88;;;5.60;;
75682;SDS011;64295;44.772;39.872;2023-02-28T10:15:27;8.52;;;5.00;;
75682;SDS011;64295;44.772;39.872;2023-02-28T10:17:58;8.48;;;5.03;;
75682;SDS011;64295;44.772;39.872;2023-02-28T10:20:32;10.75;;;4.97;;
75682;SDS011;64295;44.772;39.872;2023-02-28T10:26:01;12.00;;;5.88;;
75682;SDS011;64295;44.772;39.872;2023-02-28T10:28:38;9.85;;;4.97;;
75682;SDS011;64295;44.772;39.872;2023-02-28T10:31:05;10.70;;;5.47;;
75682;SDS011;64295;44.772;39.872;2023-02-28T10:33:39;10.15;;;5.07;;
75682;SDS011;64295;44.772;39.872;2023-02-28T10:36:05;12.35;;;4.72;;
75682;SDS011;64295;44.772;39.872;2023-02-28T10:38:37;14.23;;;5.45;;
75682;SDS011;64295;44.772;39.872;2023-02-28T10:43:32;9.85;;;5.15;;
75682;SDS011;64295;44.772;39.872;2023-02-28T10:48:38;12.68;;;5.63;;
75682;SDS011;64295;44.772;39.872;2023-02-28T10:58:56;12.63;;;5.45;;
75682;SDS011;64295;44.772;39.872;2023-02-28T11:03:55;11.77;;;5.22;;
75682;SDS011;64295;44.772;39.872;2023-02-28T11:06:32;22.70;;;6.28;;
75682;SDS011;64295;44.772;39.872;2023-02-28T11:09:00;10.35;;;5.20;;
75682;SDS011;64295;44.772;39.872;2023-02-28T11:11:30;15.43;;;7.03;;
75682;SDS011;64295;44.772;39.872;2023-02-28T11:14:06;12.20;;;6.68;;
75682;SDS011;64295;44.772;39.872;2023-02-28T11:16:44;10.85;;;7.15;;
75682;SDS011;64295;44.772;39.872;2023-02-28T11:19:29;13.45;;;6.22;;
75682;SDS011;64295;44.772;39.872;2023-02-28T11:22:04;12.10;;;6.60;;
75682;SDS011;64295;44.772;39.872;2023-02-28T11:24:35;12.43;;;6.03;;
75682;SDS011;64295;44.772;39.872;2023-02-28T11:27:23;12.65;;;6.38;;
75682;SDS011;64295;44.772;39.872;2023-02-28T11:32:58;18.10;;;5.78;;
75682;SDS011;64295;44.772;39.872;2023-02-28T11:35:36;14.88;;;6.18;;
75682;SDS011;64295;44.772;39.872;2023-02-28T11:38:09;16.40;;;6.43;;
75682;SDS011;64295;44.772;39.872;2023-02-28T11:52:02;16.38;;;7.22;;
75682;SDS011;64295;44.772;39.872;2023-02-28T11:55:04;14.63;;;6.35;;
75682;SDS011;64295;44.772;39.872;2023-02-28T12:05:54;11.65;;;6.38;;
75682;SDS011;64295;44.772;39.872;2023-02-28T12:08:42;15.45;;;8.40;;
75682;SDS011;64295;44.772;39.872;2023-02-28T12:22:29;19.27;;;8.50;;
75682;SDS011;64295;44.772;39.872;2023-02-28T12:27:41;15.90;;;7.43;;
75682;SDS011;64295;44.772;39.872;2023-02-28T12:30:19;12.80;;;7.43;;
75682;SDS011;64295;44.772;39.872;2023-02-28T12:32:54;22.50;;;10.15;;
75682;SDS011;64295;44.772;39.872;2023-02-28T12:35:31;18.90;;;10.65;;
75682;SDS011;64295;44.772;39.872;2023-02-28T12:41:12;20.27;;;9.20;;
75682;SDS011;64295;44.772;39.872;2023-02-28T12:43:45;16.08;;;9.63;;
75682;SDS011;64295;44.772;39.872;2023-02-28T12:46:22;16.83;;;9.82;;
75682;SDS011;64295;44.772;39.872;2023-02-28T12:51:18;14.07;;;8.63;;
75682;SDS011;64295;44.772;39.872;2023-02-28T12:59:35;16.52;;;8.95;;
75682;SDS011;64295;44.772;39.872;2023-02-28T13:10:34;21.95;;;11.90;;
75682;SDS011;64295;44.772;39.872;2023-02-28T13:13:04;18.77;;;10.45;;
75682;SDS011;64295;44.772;39.872;2023-02-28T13:15:30;26.65;;;10.60;;
75682;SDS011;64295;44.772;39.872;2023-02-28T13:18:00;20.98;;;10.23;;
75682;SDS011;64295;44.772;39.872;2023-02-28T13:22:55;18.48;;;9.02;;
75682;SDS011;64295;44.772;39.872;2023-02-28T13:27:59;18.95;;;9.07;;
75682;SDS011;64295;44.772;39.872;2023-02-28T13:33:28;24.98;;;16.33;;
75682;SDS011;64295;44.772;39.872;2023-02-28T13:38:38;55.85;;;33.90;;
75682;SDS011;64295;44.772;39.872;2023-02-28T13:44:04;24.20;;;12.90;;
75682;SDS011;64295;44.772;39.872;2023-02-28T14:05:37;21.80;;;10.40;;
75682;SDS011;64295;44.772;39.872;2023-02-28T14:08:18;27.98;;;13.88;;
75682;SDS011;64295;44.772;39.872;2023-02-28T14:10:47;58.33;;;28.25;;
75682;SDS011;64295;44.772;39.872;2023-02-28T14:16:13;35.17;;;15.55;;
75682;SDS011;64295;44.772;39.872;2023-02-28T14:18:49;42.65;;;21.52;;
75682;SDS011;64295;44.772;39.872;2023-02-28T14:21:31;26.80;;;12.73;;
75682;SDS011;64295;44.772;39.872;2023-02-28T14:37:29;23.95;;;11.10;;
75682;SDS011;64295;44.772;39.872;2023-02-28T14:39:58;25.70;;;12.82;;
75682;SDS011;64295;44.772;39.872;2023-02-28T14:42:30;30.52;;;14.55;;
75682;SDS011;64295;44.772;39.872;2023-02-28T14:44:58;25.85;;;13.85;;
75682;SDS011;64295;44.772;39.872;2023-02-28T14:47:28;22.10;;;10.73;;
75682;SDS011;64295;44.772;39.872;2023-02-28T14:50:01;30.33;;;13.13;;
75682;SDS011;64295;44.772;39.872;2023-02-28T14:52:29;34.17;;;14.50;;
75682;SDS011;64295;44.772;39.872;2023-02-28T14:55:04;35.15;;;16.13;;
75682;SDS011;64295;44.772;39.872;2023-02-28T14:57:39;31.52;;;14.15;;
75682;SDS011;64295;44.772;39.872;2023-02-28T15:00:12;28.05;;;13.63;;
75682;SDS011;64295;44.772;39.872;2023-02-28T15:02:46;39.78;;;18.48;;
75682;SDS011;64295;44.772;39.872;2023-02-28T15:07:38;40.55;;;17.83;;
75682;SDS011;64295;44.772;39.872;2023-02-28T15:10:18;33.35;;;15.32;;
75682;SDS011;64295;44.772;39.872;2023-02-28T15:12:57;40.72;;;14.98;;
75682;SDS011;64295;44.772;39.872;2023-02-28T15:18:36;26.27;;;13.27;;
75682;SDS011;64295;44.772;39.872;2023-02-28T15:21:21;24.48;;;12.95;;
75682;SDS011;64295;44.772;39.872;2023-02-28T15:23:55;22.45;;;10.82;;
75682;SDS011;64295;44.772;39.872;2023-02-28T15:26:50;22.38;;;9.18;;
75682;SDS011;64295;44.772;39.872;2023-02-28T15:29:23;22.25;;;10.30;;
75682;SDS011;64295;44.772;39.872;2023-02-28T15:31:56;22.67;;;11.27;;
75682;SDS011;64295;44.772;39.872;2023-02-28T15:34:34;23.92;;;11.50;;
75682;SDS011;64295;44.772;39.872;2023-02-28T15:39:56;21.02;;;9.00;;
75682;SDS011;64295;44.772;39.872;2023-02-28T15:42:27;20.92;;;11.50;;
75682;SDS011;64295;44.772;39.872;2023-02-28T15:44:54;24.00;;;10.52;;
75682;SDS011;64295;44.772;39.872;2023-02-28T15:47:24;18.92;;;10.52;;
75682;SDS011;64295;44.772;39.872;2023-02-28T15:49:59;20.65;;;9.85;;
75682;SDS011;64295;44.772;39.872;2023-02-28T15:52:29;21.55;;;11.07;;
75682;SDS011;64295;44.772;39.872;2023-02-28T15:55:22;23.30;;;10.68;;
75682;SDS011;64295;44.772;39.872;2023-02-28T15:57:53;23.45;;;11.93;;
75682;SDS011;64295;44.772;39.872;2023-02-28T16:00:24;24.17;;;10.65;;
75682;SDS011;64295;44.772;39.872;2023-02-28T16:02:52;21.50;;;11.10;;
75682;SDS011;64295;44.772;39.872;2023-02-28T16:05:20;22.63;;;10.25;;
75682;SDS011;64295;44.772;39.872;2023-02-28T16:07:57;22.60;;;10.68;;
75682;SDS011;64295;44.772;39.872;2023-02-28T16:10:25;22.25;;;11.15;;
75682;SDS011;64295;44.772;39.872;2023-02-28T16:12:53;23.92;;;11.02;;
75682;SDS011;64295;44.772;39.872;2023-02-28T16:15:25;22.95;;;10.32;;
75682;SDS011;64295;44.772;39.872;2023-02-28T16:17:54;25.77;;;11.10;;
75682;SDS011;64295;44.772;39.872;2023-02-28T16:20:22;24.25;;;11.50;;
75682;SDS011;64295;44.772;39.872;2023-02-28T16:22:51;21.30;;;10.82;;
75682;SDS011;64295;44.772;39.872;2023-02-28T16:25:19;27.50;;;13.05;;
75682;SDS011;64295;44.772;39.872;2023-02-28T16:27:48;26.77;;;12.50;;
75682;SDS011;64295;44.772;39.872;2023-02-28T16:30:23;28.83;;;12.07;;
75682;SDS011;64295;44.772;39.872;2023-02-28T16:32:51;25.02;;;12.45;;
75682;SDS011;64295;44.772;39.872;2023-02-28T16:35:19;26.25;;;11.85;;
75682;SDS011;64295;44.772;39.872;2023-02-28T16:37:46;28.83;;;13.05;;
75682;SDS011;64295;44.772;39.872;2023-02-28T16:40:16;34.03;;;15.20;;
75682;SDS011;64295;44.772;39.872;2023-02-28T16:42:52;32.10;;;13.18;;
75682;SDS011;64295;44.772;39.872;2023-02-28T16:45:21;27.77;;;13.07;;
75682;SDS011;64295;44.772;39.872;2023-02-28T16:47:51;29.85;;;13.23;;
75682;SDS011;64295;44.772;39.872;2023-02-28T16:50:20;30.63;;;13.40;;
75682;SDS011;64295;44.772;39.872;2023-02-28T16:52:51;32.22;;;12.98;;
75682;SDS011;64295;44.772;39.872;2023-02-28T16:55:17;28.25;;;11.82;;
75682;SDS011;64295;44.772;39.872;2023-02-28T16:57:44;29.88;;;12.48;;
75682;SDS011;64295;44.772;39.872;2023-02-28T17:00:15;35.97;;;12.85;;
75682;SDS011;64295;44.772;39.872;2023-02-28T17:02:41;31.60;;;13.15;;
75682;SDS011;64295;44.772;39.872;2023-02-28T17:05:08;27.92;;;12.23;;
75682;SDS011;64295;44.772;39.872;2023-02-28T17:07:36;25.08;;;12.13;;
75682;SDS011;64295;44.772;39.872;2023-02-28T17:10:04;26.27;;;13.00;;
75682;SDS011;64295;44.772;39.872;2023-02-28T17:12:46;29.05;;;13.25;;
75682;SDS011;64295;44.772;39.872;2023-02-28T17:15:13;30.15;;;12.88;;
75682;SDS011;64295;44.772;39.872;2023-02-28T17:17:41;31.67;;;14.07;;
75682;SDS011;64295;44.772;39.872;2023-02-28T17:20:12;31.25;;;14.13;;
75682;SDS011;64295;44.772;39.872;2023-02-28T17:22:40;35.05;;;13.93;;
75682;SDS011;64295;44.772;39.872;2023-02-28T17:25:07;37.25;;;14.40;;
75682;SDS011;64295;44.772;39.872;2023-02-28T17:30:03;44.95;;;13.52;;